createdAt,value
2022-08-09T00:00:08.181Z,100890.72
2022-08-09T00:02:42.871Z,100889.69
2022-08-09T00:06:16.324Z,100881.69
2022-08-09T00:08:31.931Z,100889.03
2022-08-09T00:11:00.488Z,100877.88
2022-08-09T00:13:28.285Z,100884.34
2022-08-09T00:16:02.649Z,100876.88
2022-08-09T00:18:35.504Z,100890.69
2022-08-09T00:21:04.989Z,100875.41
2022-08-09T00:23:56.095Z,100887.53
2022-08-09T00:26:29.906Z,100888.69
2022-08-09T00:29:02.090Z,100885.88
2022-08-09T00:31:57.118Z,100893.06
2022-08-09T00:34:19.454Z,100882.88
2022-08-09T00:36:48.199Z,100888.38
2022-08-09T00:40:13.128Z,100891.69
2022-08-09T00:44:13.329Z,100884.69
2022-08-09T00:44:53.615Z,100891.50
2022-08-09T00:47:24.921Z,100885.69
2022-08-09T00:49:56.627Z,100887.72
2022-08-09T00:52:30.024Z,100889.19
2022-08-09T00:55:00.417Z,100887.53
2022-08-09T00:57:34.958Z,100886.38
2022-08-09T01:00:21.571Z,100892.53
2022-08-09T01:03:09.747Z,100885.81
2022-08-09T01:05:53.131Z,100890.50
2022-08-09T01:08:48.764Z,100889.38
2022-08-09T01:11:29.073Z,100881.78
2022-08-09T01:14:18.618Z,100895.56
2022-08-09T01:16:49.294Z,100900.97
2022-08-09T01:19:39.953Z,100890.84
2022-08-09T01:22:16.403Z,100895.13
2022-08-09T01:25:04.575Z,100883.91
2022-08-09T01:27:33.721Z,100891.69
2022-08-09T01:30:02.307Z,100892.38
2022-08-09T01:32:45.469Z,100892.53
2022-08-09T01:35:37.836Z,100889.41
2022-08-09T01:38:10.767Z,100884.72
2022-08-09T01:40:44.263Z,100900.69
2022-08-09T01:43:11.742Z,100902.88
2022-08-09T01:45:46.371Z,100897.97
2022-08-09T01:48:16.559Z,100900.84
2022-08-09T01:50:48.699Z,100891.00
2022-08-09T01:53:28.921Z,100900.47
2022-08-09T01:56:09.193Z,100887.38
2022-08-09T01:58:37.329Z,100893.56
2022-08-09T02:01:05.452Z,100892.66
2022-08-09T02:03:35.897Z,100892.41
2022-08-09T02:06:06.741Z,100895.59
2022-08-09T02:08:56.997Z,100886.84
2022-08-09T02:11:23.679Z,100889.09
2022-08-09T02:14:06.124Z,100896.75
2022-08-09T02:16:59.068Z,100894.44
2022-08-09T02:19:23.930Z,100894.91
2022-08-09T02:21:55.286Z,100893.41
2022-08-09T02:24:26.051Z,100901.06
2022-08-09T02:26:55.142Z,100907.91
2022-08-09T02:29:24.408Z,100910.00
2022-08-09T02:31:51.896Z,100909.53
2022-08-09T02:34:25.779Z,100907.34
2022-08-09T02:37:12.005Z,100909.53
2022-08-09T02:39:44.475Z,100911.13
2022-08-09T02:42:20.002Z,100906.94
2022-08-09T02:45:03.123Z,100908.19
2022-08-09T02:47:33.761Z,100912.06
2022-08-09T02:50:21.694Z,100916.53
2022-08-09T02:52:56.741Z,100911.13
2022-08-09T02:55:24.779Z,100919.88
2022-08-09T02:58:36.805Z,100920.19
2022-08-09T03:00:59.971Z,100919.00
2022-08-09T03:04:13.121Z,100921.75
2022-08-09T03:06:21.428Z,100922.44
2022-08-09T03:08:49.528Z,100923.47
2022-08-09T03:12:04.724Z,100932.31
2022-08-09T03:14:05.582Z,100931.03
2022-08-09T03:16:33.234Z,100928.06
2022-08-09T03:19:05.863Z,100935.28
2022-08-09T03:21:42.135Z,100949.16
2022-08-09T03:24:31.306Z,100943.06
2022-08-09T03:27:07.282Z,100937.13
2022-08-09T03:29:35.637Z,100936.63
2022-08-09T03:32:10.833Z,100954.53
2022-08-09T03:34:38.903Z,100928.56
2022-08-09T03:37:10.726Z,100934.38
2022-08-09T03:39:55.555Z,100935.22
2022-08-09T03:42:28.833Z,100937.53
2022-08-09T03:44:59.001Z,100939.06
2022-08-09T03:47:26.718Z,100934.22
2022-08-09T03:49:58.326Z,100933.78
2022-08-09T03:52:28.020Z,100941.00
2022-08-09T03:54:56.664Z,100931.13
2022-08-09T03:57:24.158Z,100931.31
2022-08-09T03:59:54.248Z,100931.69
2022-08-09T04:02:26.117Z,100929.84
2022-08-09T04:04:56.152Z,100929.50
2022-08-09T04:07:23.735Z,100930.06
2022-08-09T04:10:11.319Z,100926.56
2022-08-09T04:12:44.713Z,100931.69
2022-08-09T04:15:29.602Z,100932.22
2022-08-09T04:18:00.526Z,100927.09
2022-08-09T04:20:28.962Z,100923.00
2022-08-09T04:22:56.450Z,100925.44
2022-08-09T04:25:26.784Z,100930.97
2022-08-09T04:27:59.996Z,100932.81
2022-08-09T04:30:31.874Z,100931.31
2022-08-09T04:33:02.446Z,100923.94
2022-08-09T04:35:32.873Z,100932.63
2022-08-09T04:38:03.507Z,100925.56
2022-08-09T04:40:48.302Z,100930.75
2022-08-09T04:43:25.238Z,100930.13
2022-08-09T04:45:52.920Z,100921.84
2022-08-09T04:48:23.877Z,100917.75
2022-08-09T04:51:00.916Z,100922.63
2022-08-09T04:53:31.508Z,100922.06
2022-08-09T04:55:59.878Z,100922.00
2022-08-09T04:58:27.813Z,100913.06
2022-08-09T05:00:56.452Z,100919.88
2022-08-09T05:03:42.953Z,100919.25
2022-08-09T05:06:11.873Z,100925.69
2022-08-09T05:08:49.608Z,100931.97
2022-08-09T05:11:17.011Z,100926.63
2022-08-09T15:54:07.986Z,100678.00
2022-08-09T15:56:23.379Z,100689.53
2022-08-09T15:58:53.237Z,100689.50
2022-08-09T16:01:20.655Z,100688.59
2022-08-09T16:03:50.915Z,100675.09
2022-08-09T16:06:34.694Z,100683.72
2022-08-09T16:09:05.234Z,100681.00
2022-08-09T16:11:33.816Z,100677.94
2022-08-09T16:14:07.716Z,100685.38
2022-08-09T16:16:37.346Z,100678.25
2022-08-09T16:19:06.183Z,100681.94
2022-08-09T16:21:35.928Z,100688.25
2022-08-09T16:24:04.747Z,100691.13
2022-08-09T16:26:34.707Z,100695.94
2022-08-09T16:29:11.023Z,100691.47
2022-08-09T16:32:18.803Z,100691.28
2022-08-09T16:34:53.565Z,100693.38
2022-08-09T16:37:54.942Z,100691.75
2022-08-09T16:40:12.257Z,100704.69
2022-08-09T16:42:45.328Z,100695.84
2022-08-09T16:45:23.654Z,100702.09
2022-08-09T16:48:42.730Z,100698.69
2022-08-09T16:50:42.231Z,100699.03
2022-08-09T16:53:26.794Z,100703.00
2022-08-09T16:56:07.528Z,100702.38
2022-08-09T16:58:39.877Z,100711.94
2022-08-09T17:01:10.605Z,100712.00
2022-08-09T17:03:38.196Z,100719.72
2022-08-09T17:06:31.385Z,100722.31
2022-08-09T17:09:08.437Z,100729.63
2022-08-09T17:11:40.476Z,100733.50
2022-08-09T17:14:25.380Z,100735.88
2022-08-09T17:16:56.434Z,100730.06
2022-08-09T17:19:47.686Z,100739.69
2022-08-09T17:22:24.708Z,100737.97
2022-08-09T17:25:04.813Z,100741.84
2022-08-09T17:27:38.583Z,100741.44
2022-08-09T17:30:07.210Z,100749.13
2022-08-09T17:32:45.389Z,100750.03
2022-08-09T17:35:14.242Z,100739.16
2022-08-09T17:38:11.244Z,100750.91
2022-08-09T17:40:30.167Z,100746.41
2022-08-09T17:43:03.283Z,100741.53
2022-08-09T17:46:04.389Z,100746.69
2022-08-09T17:48:35.356Z,100745.84
2022-08-09T17:51:18.247Z,100744.63
2022-08-09T17:53:51.624Z,100749.94
2022-08-09T17:56:27.268Z,100751.13
2022-08-09T17:58:59.797Z,100746.25
2022-08-09T18:01:58.077Z,100756.13
2022-08-09T18:04:16.378Z,100751.63
2022-08-09T18:06:49.673Z,100760.22
2022-08-09T18:09:35.796Z,100759.44
2022-08-09T18:12:17.903Z,100766.78
2022-08-09T18:14:53.671Z,100768.47
2022-08-09T18:18:01.590Z,100766.41
2022-08-09T18:20:56.083Z,100770.91
2022-08-09T18:23:04.862Z,100772.16
2022-08-09T18:25:50.827Z,100771.69
2022-08-09T18:30:38.595Z,100773.28
2022-08-09T18:31:09.298Z,100773.00
2022-08-09T18:33:36.901Z,100773.38
2022-08-09T18:36:08.415Z,100775.13
2022-08-09T18:38:42.145Z,100770.25
2022-08-09T18:41:09.754Z,100773.63
2022-08-09T18:43:37.125Z,100778.91
2022-08-09T18:46:49.611Z,100777.03
2022-08-09T18:49:08.213Z,100775.13
2022-08-09T18:51:38.144Z,100769.78
2022-08-09T18:54:29.600Z,100766.97
2022-08-09T18:57:06.029Z,100765.28
2022-08-09T18:59:48.757Z,100769.34
2022-08-09T19:02:20.051Z,100773.56
2022-08-09T19:05:14.916Z,100778.16
2022-08-09T19:07:35.919Z,100772.59
2022-08-09T19:10:14.533Z,100773.41
2022-08-09T19:12:50.139Z,100769.28
2022-08-09T19:15:23.005Z,100772.00
2022-08-09T19:17:56.178Z,100776.06
2022-08-09T19:20:24.451Z,100777.09
2022-08-09T19:22:54.474Z,100771.09
2022-08-09T19:25:41.935Z,100767.03
2022-08-09T19:28:13.291Z,100771.38
2022-08-09T19:30:44.525Z,100769.66
2022-08-09T19:33:19.192Z,100775.53
2022-08-09T19:35:57.179Z,100774.06
2022-08-09T19:38:26.910Z,100779.84
2022-08-09T19:40:54.472Z,100779.25
2022-08-09T19:43:58.047Z,100775.19
2022-08-09T19:46:14.521Z,100774.50
2022-08-09T19:49:01.938Z,100771.41
2022-08-09T19:51:31.182Z,100766.13
2022-08-09T19:53:59.292Z,100777.09
2022-08-09T19:56:28.681Z,100771.09
2022-08-09T19:59:39.373Z,100762.50
2022-08-09T20:02:00.500Z,100768.22
2022-08-09T20:04:37.534Z,100764.31
2022-08-09T20:07:16.028Z,100779.72
2022-08-09T20:09:50.350Z,100774.34
2022-08-09T20:12:37.749Z,100771.19
2022-08-09T20:16:31.443Z,100774.25
2022-08-09T20:17:54.776Z,100773.44
2022-08-09T20:20:24.943Z,100773.66
2022-08-09T20:22:56.217Z,100775.53
2022-08-09T20:25:25.372Z,100774.59
2022-08-09T20:27:53.101Z,100771.38
2022-08-09T20:30:24.000Z,100770.09
2022-08-09T20:32:52.886Z,100768.66
2022-08-09T20:35:21.660Z,100767.72
2022-08-09T20:38:22.171Z,100765.72
2022-08-09T20:40:37.085Z,100764.41
2022-08-09T20:43:18.467Z,100769.16
2022-08-09T20:45:56.948Z,100766.66
2022-08-09T20:48:29.099Z,100758.81
2022-08-09T20:50:59.561Z,100758.25
2022-08-09T20:53:36.347Z,100753.13
2022-08-09T20:56:06.817Z,100755.53
2022-08-09T20:58:36.395Z,100745.69
2022-08-09T21:01:33.644Z,100755.16
2022-08-09T21:05:48.147Z,100754.69
2022-08-09T21:06:42.885Z,100751.81
2022-08-09T21:09:13.458Z,100752.78
2022-08-09T21:14:31.290Z,100737.13
2022-08-09T21:16:59.438Z,100742.31
2022-08-09T21:20:19.055Z,100737.59
2022-08-09T21:22:36.021Z,100737.09
2022-08-09T21:25:21.558Z,100726.69
2022-08-09T21:27:52.290Z,100729.28
2022-08-09T21:30:22.454Z,100728.47
2022-08-09T21:32:50.581Z,100730.56
2022-08-09T21:35:18.009Z,100728.78
2022-08-09T21:37:59.541Z,100730.53
2022-08-09T21:40:30.837Z,100721.38
2022-08-09T21:43:00.678Z,100717.78
2022-08-09T21:45:28.301Z,100731.59
2022-08-09T21:47:55.861Z,100723.53
2022-08-09T21:50:23.747Z,100718.69
2022-08-09T21:53:04.139Z,100713.94
2022-08-09T21:55:32.387Z,100718.75
2022-08-09T21:58:02.687Z,100713.69
2022-08-09T22:00:32.713Z,100717.56
2022-08-09T22:03:01.011Z,100714.47
2022-08-09T22:05:35.464Z,100707.69
2022-08-09T22:08:13.465Z,100704.50
2022-08-09T22:11:49.567Z,100704.31
2022-08-09T22:13:31.445Z,100711.03
2022-08-09T22:16:03.713Z,100710.88
2022-08-09T22:18:32.869Z,100704.09
2022-08-09T22:21:01.090Z,100704.16
2022-08-09T22:23:35.578Z,100711.28
2022-08-09T22:26:34.064Z,100709.41
2022-08-09T22:29:05.325Z,100710.97
2022-08-09T22:31:36.188Z,100705.31
2022-08-09T22:34:14.450Z,100708.44
2022-08-09T22:36:46.444Z,100688.75
2022-08-09T22:39:47.275Z,100697.91
2022-08-09T22:42:03.039Z,100702.19
2022-08-09T22:44:33.481Z,100705.41
2022-08-09T22:48:13.618Z,100697.59
2022-08-09T22:49:52.041Z,100704.28
2022-08-09T22:52:19.979Z,100698.56
2022-08-09T22:54:47.801Z,100702.50
2022-08-09T22:57:15.235Z,100695.38
2022-08-09T22:59:55.978Z,100698.16
2022-08-09T23:02:27.381Z,100694.22
2022-08-09T23:04:55.364Z,100696.22
2022-08-09T23:08:23.354Z,100690.94
2022-08-09T23:10:31.006Z,100688.38
2022-08-09T23:12:58.691Z,100687.34
2022-08-09T23:15:26.813Z,100690.25
2022-08-09T23:17:54.344Z,100687.97
2022-08-09T23:20:21.905Z,100678.63
2022-08-09T23:22:49.418Z,100670.84
2022-08-09T23:25:16.946Z,100669.56
2022-08-09T23:28:14.142Z,100676.63
2022-08-09T23:30:31.948Z,100675.69
2022-08-09T23:32:59.389Z,100666.53
2022-08-09T23:35:26.928Z,100665.72
2022-08-09T23:37:54.269Z,100668.34
2022-08-09T23:40:21.661Z,100659.22
2022-08-09T23:42:49.121Z,100664.41
2022-08-09T23:45:37.325Z,100661.13
2022-08-09T23:48:08.563Z,100659.28
2022-08-09T23:50:37.376Z,100661.53
2022-08-09T23:53:04.853Z,100660.88
2022-08-09T23:55:33.330Z,100659.38
2022-08-09T23:58:10.595Z,100666.16
